sensor_id;sensor_type;location;lat;lon;timestamp;P1;durP1;ratioP1;P2;durP2;ratioP2
80675;SDS011;70041;46.088;18.268;2023-10-13T00:01:59;13.40;;;5.80;;
80675;SDS011;70041;46.088;18.268;2023-10-13T00:04:26;11.40;;;6.03;;
80675;SDS011;70041;46.088;18.268;2023-10-13T00:06:51;15.02;;;6.43;;
80675;SDS011;70041;46.088;18.268;2023-10-13T00:09:18;16.60;;;6.53;;
80675;SDS011;70041;46.088;18.268;2023-10-13T00:11:45;14.68;;;6.57;;
80675;SDS011;70041;46.088;18.268;2023-10-13T00:14:13;13.63;;;6.95;;
80675;SDS011;70041;46.088;18.268;2023-10-13T00:16:43;16.48;;;7.28;;
80675;SDS011;70041;46.088;18.268;2023-10-13T00:19:30;14.00;;;6.20;;
80675;SDS011;70041;46.088;18.268;2023-10-13T00:22:17;13.93;;;6.40;;
80675;SDS011;70041;46.088;18.268;2023-10-13T00:24:44;15.88;;;6.82;;
80675;SDS011;70041;46.088;18.268;2023-10-13T00:27:14;13.02;;;6.40;;
80675;SDS011;70041;46.088;18.268;2023-10-13T00:30:05;12.13;;;5.80;;
80675;SDS011;70041;46.088;18.268;2023-10-13T00:32:52;15.43;;;6.40;;
80675;SDS011;70041;46.088;18.268;2023-10-13T00:35:30;15.13;;;5.80;;
80675;SDS011;70041;46.088;18.268;2023-10-13T00:38:03;14.63;;;6.40;;
80675;SDS011;70041;46.088;18.268;2023-10-13T00:40:31;13.82;;;6.47;;
80675;SDS011;70041;46.088;18.268;2023-10-13T00:42:57;14.45;;;6.15;;
80675;SDS011;70041;46.088;18.268;2023-10-13T00:45:44;13.75;;;6.60;;
80675;SDS011;70041;46.088;18.268;2023-10-13T00:48:13;14.63;;;6.32;;
80675;SDS011;70041;46.088;18.268;2023-10-13T00:50:39;15.13;;;6.90;;
80675;SDS011;70041;46.088;18.268;2023-10-13T00:53:06;12.48;;;6.05;;
80675;SDS011;70041;46.088;18.268;2023-10-13T00:55:32;14.02;;;6.38;;
80675;SDS011;70041;46.088;18.268;2023-10-13T00:58:02;16.33;;;6.43;;
80675;SDS011;70041;46.088;18.268;2023-10-13T01:00:32;13.45;;;6.03;;
80675;SDS011;70041;46.088;18.268;2023-10-13T01:02:57;14.00;;;6.03;;
80675;SDS011;70041;46.088;18.268;2023-10-13T01:05:31;13.15;;;6.63;;
80675;SDS011;70041;46.088;18.268;2023-10-13T01:08:01;15.63;;;6.43;;
80675;SDS011;70041;46.088;18.268;2023-10-13T01:10:28;16.13;;;7.43;;
80675;SDS011;70041;46.088;18.268;2023-10-13T01:12:57;16.20;;;7.20;;
80675;SDS011;70041;46.088;18.268;2023-10-13T01:15:24;14.75;;;7.15;;
80675;SDS011;70041;46.088;18.268;2023-10-13T01:17:54;18.25;;;8.23;;
80675;SDS011;70041;46.088;18.268;2023-10-13T01:20:36;16.27;;;7.72;;
80675;SDS011;70041;46.088;18.268;2023-10-13T01:23:10;16.50;;;6.83;;
80675;SDS011;70041;46.088;18.268;2023-10-13T01:25:49;12.88;;;6.43;;
80675;SDS011;70041;46.088;18.268;2023-10-13T01:28:15;14.23;;;6.20;;
80675;SDS011;70041;46.088;18.268;2023-10-13T01:30:44;16.40;;;6.53;;
80675;SDS011;70041;46.088;18.268;2023-10-13T01:33:17;15.05;;;7.07;;
80675;SDS011;70041;46.088;18.268;2023-10-13T01:35:51;18.15;;;9.20;;
80675;SDS011;70041;46.088;18.268;2023-10-13T01:38:18;14.98;;;8.93;;
80675;SDS011;70041;46.088;18.268;2023-10-13T01:40:43;16.37;;;8.27;;
80675;SDS011;70041;46.088;18.268;2023-10-13T01:43:09;16.87;;;9.13;;
80675;SDS011;70041;46.088;18.268;2023-10-13T01:45:39;20.08;;;9.45;;
80675;SDS011;70041;46.088;18.268;2023-10-13T01:48:14;19.05;;;8.88;;
80675;SDS011;70041;46.088;18.268;2023-10-13T01:50:42;18.08;;;8.60;;
80675;SDS011;70041;46.088;18.268;2023-10-13T01:53:19;18.35;;;8.65;;
80675;SDS011;70041;46.088;18.268;2023-10-13T01:55:45;23.27;;;9.53;;
80675;SDS011;70041;46.088;18.268;2023-10-13T01:58:11;17.30;;;8.20;;
80675;SDS011;70041;46.088;18.268;2023-10-13T02:00:48;22.52;;;8.05;;
80675;SDS011;70041;46.088;18.268;2023-10-13T02:03:13;19.03;;;8.67;;
80675;SDS011;70041;46.088;18.268;2023-10-13T02:05:46;16.67;;;8.43;;
80675;SDS011;70041;46.088;18.268;2023-10-13T02:08:22;18.15;;;9.02;;
80675;SDS011;70041;46.088;18.268;2023-10-13T02:10:51;18.77;;;8.75;;
80675;SDS011;70041;46.088;18.268;2023-10-13T02:13:17;19.92;;;8.60;;
80675;SDS011;70041;46.088;18.268;2023-10-13T02:15:44;16.17;;;8.20;;
80675;SDS011;70041;46.088;18.268;2023-10-13T02:18:16;20.60;;;8.40;;
80675;SDS011;70041;46.088;18.268;2023-10-13T02:20:54;18.08;;;8.95;;
80675;SDS011;70041;46.088;18.268;2023-10-13T02:23:22;18.48;;;8.15;;
80675;SDS011;70041;46.088;18.268;2023-10-13T02:25:49;21.55;;;9.05;;
80675;SDS011;70041;46.088;18.268;2023-10-13T02:28:25;17.13;;;8.40;;
80675;SDS011;70041;46.088;18.268;2023-10-13T02:30:53;17.70;;;8.60;;
80675;SDS011;70041;46.088;18.268;2023-10-13T02:33:19;19.50;;;9.13;;
80675;SDS011;70041;46.088;18.268;2023-10-13T02:35:50;19.40;;;8.93;;
80675;SDS011;70041;46.088;18.268;2023-10-13T02:38:18;23.35;;;9.05;;
80675;SDS011;70041;46.088;18.268;2023-10-13T02:40:52;17.67;;;8.48;;
80675;SDS011;70041;46.088;18.268;2023-10-13T02:43:19;16.90;;;8.93;;
80675;SDS011;70041;46.088;18.268;2023-10-13T02:45:53;18.43;;;8.10;;
80675;SDS011;70041;46.088;18.268;2023-10-13T02:48:26;21.60;;;9.20;;
80675;SDS011;70041;46.088;18.268;2023-10-13T02:50:59;20.02;;;9.55;;
80675;SDS011;70041;46.088;18.268;2023-10-13T02:53:30;18.23;;;8.38;;
80675;SDS011;70041;46.088;18.268;2023-10-13T02:55:56;19.90;;;9.27;;
80675;SDS011;70041;46.088;18.268;2023-10-13T02:58:30;17.08;;;8.45;;
80675;SDS011;70041;46.088;18.268;2023-10-13T03:01:08;17.52;;;8.50;;
80675;SDS011;70041;46.088;18.268;2023-10-13T03:03:42;16.13;;;8.33;;
80675;SDS011;70041;46.088;18.268;2023-10-13T03:06:19;16.63;;;8.95;;
80675;SDS011;70041;46.088;18.268;2023-10-13T03:08:58;25.38;;;9.23;;
80675;SDS011;70041;46.088;18.268;2023-10-13T03:11:42;19.42;;;9.38;;
80675;SDS011;70041;46.088;18.268;2023-10-13T03:14:13;19.50;;;9.30;;
80675;SDS011;70041;46.088;18.268;2023-10-13T03:16:50;17.23;;;8.83;;
80675;SDS011;70041;46.088;18.268;2023-10-13T03:19:19;19.13;;;10.18;;
80675;SDS011;70041;46.088;18.268;2023-10-13T03:21:46;19.50;;;10.10;;
80675;SDS011;70041;46.088;18.268;2023-10-13T03:24:21;19.08;;;9.95;;
80675;SDS011;70041;46.088;18.268;2023-10-13T03:27:01;19.77;;;10.23;;
80675;SDS011;70041;46.088;18.268;2023-10-13T03:29:37;22.13;;;10.33;;
80675;SDS011;70041;46.088;18.268;2023-10-13T03:32:15;20.70;;;9.93;;
80675;SDS011;70041;46.088;18.268;2023-10-13T03:34:41;19.23;;;9.38;;
80675;SDS011;70041;46.088;18.268;2023-10-13T03:37:26;22.08;;;9.18;;
80675;SDS011;70041;46.088;18.268;2023-10-13T03:40:11;20.98;;;10.50;;
80675;SDS011;70041;46.088;18.268;2023-10-13T03:42:47;17.03;;;9.37;;
80675;SDS011;70041;46.088;18.268;2023-10-13T03:45:41;22.08;;;10.52;;
80675;SDS011;70041;46.088;18.268;2023-10-13T03:48:14;19.23;;;8.88;;
80675;SDS011;70041;46.088;18.268;2023-10-13T03:50:52;20.35;;;9.57;;
80675;SDS011;70041;46.088;18.268;2023-10-13T03:53:40;22.83;;;10.32;;
80675;SDS011;70041;46.088;18.268;2023-10-13T03:56:17;19.53;;;10.20;;
80675;SDS011;70041;46.088;18.268;2023-10-13T03:58:51;20.83;;;10.43;;
80675;SDS011;70041;46.088;18.268;2023-10-13T04:01:38;22.88;;;10.13;;
80675;SDS011;70041;46.088;18.268;2023-10-13T04:04:22;21.27;;;9.85;;
80675;SDS011;70041;46.088;18.268;2023-10-13T04:07:01;20.45;;;10.52;;
80675;SDS011;70041;46.088;18.268;2023-10-13T04:09:35;20.43;;;10.77;;
80675;SDS011;70041;46.088;18.268;2023-10-13T04:12:07;20.02;;;9.82;;
80675;SDS011;70041;46.088;18.268;2023-10-13T04:15:05;22.05;;;10.88;;
80675;SDS011;70041;46.088;18.268;2023-10-13T04:17:31;22.38;;;11.23;;
80675;SDS011;70041;46.088;18.268;2023-10-13T04:20:05;21.05;;;10.45;;
80675;SDS011;70041;46.088;18.268;2023-10-13T04:22:31;17.30;;;9.83;;
80675;SDS011;70041;46.088;18.268;2023-10-13T04:25:12;20.25;;;10.23;;
80675;SDS011;70041;46.088;18.268;2023-10-13T04:28:11;19.35;;;10.43;;
80675;SDS011;70041;46.088;18.268;2023-10-13T04:30:59;25.53;;;12.23;;
80675;SDS011;70041;46.088;18.268;2023-10-13T04:33:36;24.00;;;11.45;;
80675;SDS011;70041;46.088;18.268;2023-10-13T04:36:21;23.35;;;11.90;;
80675;SDS011;70041;46.088;18.268;2023-10-13T04:38:47;23.77;;;11.15;;
80675;SDS011;70041;46.088;18.268;2023-10-13T04:41:40;21.27;;;9.70;;
80675;SDS011;70041;46.088;18.268;2023-10-13T04:44:23;21.75;;;10.77;;
80675;SDS011;70041;46.088;18.268;2023-10-13T04:46:49;25.55;;;10.85;;
80675;SDS011;70041;46.088;18.268;2023-10-13T04:49:14;20.73;;;9.55;;
80675;SDS011;70041;46.088;18.268;2023-10-13T04:51:57;19.27;;;10.00;;
80675;SDS011;70041;46.088;18.268;2023-10-13T04:54:26;17.40;;;8.45;;
80675;SDS011;70041;46.088;18.268;2023-10-13T04:56:58;21.08;;;9.70;;
80675;SDS011;70041;46.088;18.268;2023-10-13T04:59:44;18.48;;;9.70;;
80675;SDS011;70041;46.088;18.268;2023-10-13T05:02:31;21.85;;;10.45;;
80675;SDS011;70041;46.088;18.268;2023-10-13T05:05:00;21.58;;;10.98;;
80675;SDS011;70041;46.088;18.268;2023-10-13T05:07:34;21.48;;;11.75;;
80675;SDS011;70041;46.088;18.268;2023-10-13T05:10:17;19.40;;;10.27;;
80675;SDS011;70041;46.088;18.268;2023-10-13T05:13:22;22.70;;;11.48;;
80675;SDS011;70041;46.088;18.268;2023-10-13T05:16:06;24.92;;;11.38;;
80675;SDS011;70041;46.088;18.268;2023-10-13T05:18:50;23.45;;;11.63;;
80675;SDS011;70041;46.088;18.268;2023-10-13T05:21:34;26.35;;;11.88;;
80675;SDS011;70041;46.088;18.268;2023-10-13T05:24:17;32.00;;;13.90;;
80675;SDS011;70041;46.088;18.268;2023-10-13T05:27:01;28.60;;;13.55;;
80675;SDS011;70041;46.088;18.268;2023-10-13T05:29:46;26.40;;;14.43;;
80675;SDS011;70041;46.088;18.268;2023-10-13T05:32:31;35.53;;;18.38;;
80675;SDS011;70041;46.088;18.268;2023-10-13T05:35:15;38.58;;;18.52;;
80675;SDS011;70041;46.088;18.268;2023-10-13T05:37:59;28.75;;;13.75;;
80675;SDS011;70041;46.088;18.268;2023-10-13T05:41:03;21.88;;;11.43;;
80675;SDS011;70041;46.088;18.268;2023-10-13T05:43:48;21.27;;;10.65;;
80675;SDS011;70041;46.088;18.268;2023-10-13T05:46:32;23.85;;;14.13;;
80675;SDS011;70041;46.088;18.268;2023-10-13T05:49:01;26.65;;;12.50;;
80675;SDS011;70041;46.088;18.268;2023-10-13T05:51:30;31.02;;;14.32;;
80675;SDS011;70041;46.088;18.268;2023-10-13T05:54:15;27.33;;;13.52;;
80675;SDS011;70041;46.088;18.268;2023-10-13T05:59:25;20.43;;;11.00;;
80675;SDS011;70041;46.088;18.268;2023-10-13T06:02:09;21.35;;;11.50;;
80675;SDS011;70041;46.088;18.268;2023-10-13T06:04:53;25.50;;;12.43;;
80675;SDS011;70041;46.088;18.268;2023-10-13T06:07:37;26.98;;;12.70;;
80675;SDS011;70041;46.088;18.268;2023-10-13T06:10:22;27.92;;;12.77;;
80675;SDS011;70041;46.088;18.268;2023-10-13T06:13:06;24.10;;;11.43;;
80675;SDS011;70041;46.088;18.268;2023-10-13T06:15:50;27.10;;;13.48;;
80675;SDS011;70041;46.088;18.268;2023-10-13T06:18:34;24.98;;;12.32;;
80675;SDS011;70041;46.088;18.268;2023-10-13T06:21:19;26.33;;;14.05;;
80675;SDS011;70041;46.088;18.268;2023-10-13T06:24:04;23.65;;;12.50;;
80675;SDS011;70041;46.088;18.268;2023-10-13T06:26:49;26.97;;;14.07;;
80675;SDS011;70041;46.088;18.268;2023-10-13T06:29:33;24.00;;;12.65;;
80675;SDS011;70041;46.088;18.268;2023-10-13T06:31:59;27.08;;;14.68;;
80675;SDS011;70041;46.088;18.268;2023-10-13T06:34:27;26.70;;;14.32;;
80675;SDS011;70041;46.088;18.268;2023-10-13T06:37:12;30.90;;;14.40;;
80675;SDS011;70041;46.088;18.268;2023-10-13T06:39:51;27.98;;;13.63;;
80675;SDS011;70041;46.088;18.268;2023-10-13T06:42:18;30.45;;;15.55;;
80675;SDS011;70041;46.088;18.268;2023-10-13T06:44:45;33.35;;;14.80;;
80675;SDS011;70041;46.088;18.268;2023-10-13T06:47:12;27.90;;;13.67;;
80675;SDS011;70041;46.088;18.268;2023-10-13T06:49:41;28.05;;;14.35;;
80675;SDS011;70041;46.088;18.268;2023-10-13T06:52:09;28.63;;;13.25;;
80675;SDS011;70041;46.088;18.268;2023-10-13T06:54:38;28.60;;;13.55;;
80675;SDS011;70041;46.088;18.268;2023-10-13T06:57:07;22.95;;;12.38;;
80675;SDS011;70041;46.088;18.268;2023-10-13T06:59:39;29.03;;;13.13;;
80675;SDS011;70041;46.088;18.268;2023-10-13T07:02:05;26.48;;;12.88;;
80675;SDS011;70041;46.088;18.268;2023-10-13T07:04:33;26.55;;;12.88;;
80675;SDS011;70041;46.088;18.268;2023-10-13T07:06:59;26.02;;;12.43;;
80675;SDS011;70041;46.088;18.268;2023-10-13T07:09:26;31.20;;;14.03;;
80675;SDS011;70041;46.088;18.268;2023-10-13T07:12:01;25.55;;;13.77;;
80675;SDS011;70041;46.088;18.268;2023-10-13T07:14:51;23.92;;;12.95;;
80675;SDS011;70041;46.088;18.268;2023-10-13T07:17:18;28.50;;;13.55;;
80675;SDS011;70041;46.088;18.268;2023-10-13T07:19:53;31.05;;;12.95;;
80675;SDS011;70041;46.088;18.268;2023-10-13T07:22:21;24.07;;;12.83;;
80675;SDS011;70041;46.088;18.268;2023-10-13T07:24:47;25.95;;;11.90;;
80675;SDS011;70041;46.088;18.268;2023-10-13T07:27:21;25.30;;;12.80;;
80675;SDS011;70041;46.088;18.268;2023-10-13T07:29:56;21.95;;;11.43;;
80675;SDS011;70041;46.088;18.268;2023-10-13T07:32:31;21.88;;;11.25;;
80675;SDS011;70041;46.088;18.268;2023-10-13T07:34:59;22.37;;;10.93;;
80675;SDS011;70041;46.088;18.268;2023-10-13T07:37:34;24.33;;;11.52;;
80675;SDS011;70041;46.088;18.268;2023-10-13T07:40:00;21.02;;;11.50;;
80675;SDS011;70041;46.088;18.268;2023-10-13T07:42:26;22.47;;;10.57;;
80675;SDS011;70041;46.088;18.268;2023-10-13T07:45:04;24.73;;;11.57;;
80675;SDS011;70041;46.088;18.268;2023-10-13T07:47:30;21.25;;;11.13;;
80675;SDS011;70041;46.088;18.268;2023-10-13T07:49:58;19.92;;;11.13;;
80675;SDS011;70041;46.088;18.268;2023-10-13T07:52:23;20.33;;;10.77;;
80675;SDS011;70041;46.088;18.268;2023-10-13T07:54:50;21.77;;;10.63;;
80675;SDS011;70041;46.088;18.268;2023-10-13T07:57:36;20.45;;;9.27;;
80675;SDS011;70041;46.088;18.268;2023-10-13T08:00:18;18.48;;;9.57;;
80675;SDS011;70041;46.088;18.268;2023-10-13T08:03:02;19.95;;;9.98;;
80675;SDS011;70041;46.088;18.268;2023-10-13T08:05:39;21.33;;;10.53;;
80675;SDS011;70041;46.088;18.268;2023-10-13T08:08:21;18.45;;;9.00;;
80675;SDS011;70041;46.088;18.268;2023-10-13T08:10:50;20.67;;;10.38;;
80675;SDS011;70041;46.088;18.268;2023-10-13T08:13:20;18.80;;;9.13;;
80675;SDS011;70041;46.088;18.268;2023-10-13T08:15:47;21.23;;;9.85;;
80675;SDS011;70041;46.088;18.268;2023-10-13T08:18:15;21.03;;;9.70;;
80675;SDS011;70041;46.088;18.268;2023-10-13T08:20:57;18.98;;;9.38;;
80675;SDS011;70041;46.088;18.268;2023-10-13T08:23:32;22.05;;;9.80;;
80675;SDS011;70041;46.088;18.268;2023-10-13T08:26:24;21.23;;;9.77;;
80675;SDS011;70041;46.088;18.268;2023-10-13T08:29:01;18.57;;;9.73;;
80675;SDS011;70041;46.088;18.268;2023-10-13T08:31:49;20.20;;;9.05;;
80675;SDS011;70041;46.088;18.268;2023-10-13T08:34:35;19.90;;;9.93;;
80675;SDS011;70041;46.088;18.268;2023-10-13T08:37:10;21.42;;;8.70;;
80675;SDS011;70041;46.088;18.268;2023-10-13T08:39:48;20.55;;;9.20;;
80675;SDS011;70041;46.088;18.268;2023-10-13T08:45:11;18.77;;;9.20;;
80675;SDS011;70041;46.088;18.268;2023-10-13T08:47:59;17.65;;;8.25;;
80675;SDS011;70041;46.088;18.268;2023-10-13T08:53:16;21.48;;;9.52;;
80675;SDS011;70041;46.088;18.268;2023-10-13T08:55:58;16.67;;;9.43;;
80675;SDS011;70041;46.088;18.268;2023-10-13T08:58:34;20.77;;;10.10;;
80675;SDS011;70041;46.088;18.268;2023-10-13T09:01:20;16.30;;;8.20;;
80675;SDS011;70041;46.088;18.268;2023-10-13T09:03:59;15.68;;;8.95;;
80675;SDS011;70041;46.088;18.268;2023-10-13T09:06:44;17.85;;;8.60;;
80675;SDS011;70041;46.088;18.268;2023-10-13T09:09:24;16.97;;;9.70;;
80675;SDS011;70041;46.088;18.268;2023-10-13T09:12:21;19.05;;;9.98;;
80675;SDS011;70041;46.088;18.268;2023-10-13T09:15:09;22.77;;;9.38;;
80675;SDS011;70041;46.088;18.268;2023-10-13T09:17:48;19.48;;;9.13;;
80675;SDS011;70041;46.088;18.268;2023-10-13T09:20:18;19.25;;;9.52;;
80675;SDS011;70041;46.088;18.268;2023-10-13T09:23:08;18.77;;;8.80;;
80675;SDS011;70041;46.088;18.268;2023-10-13T09:25:38;17.90;;;8.68;;
80675;SDS011;70041;46.088;18.268;2023-10-13T09:28:21;18.33;;;8.20;;
80675;SDS011;70041;46.088;18.268;2023-10-13T09:30:53;16.50;;;9.27;;
80675;SDS011;70041;46.088;18.268;2023-10-13T09:33:28;15.88;;;8.27;;
80675;SDS011;70041;46.088;18.268;2023-10-13T09:36:15;16.50;;;7.83;;
80675;SDS011;70041;46.088;18.268;2023-10-13T09:38:42;17.50;;;7.93;;
80675;SDS011;70041;46.088;18.268;2023-10-13T09:41:36;20.35;;;8.93;;
80675;SDS011;70041;46.088;18.268;2023-10-13T09:44:02;17.80;;;9.15;;
80675;SDS011;70041;46.088;18.268;2023-10-13T09:46:28;16.60;;;8.75;;
80675;SDS011;70041;46.088;18.268;2023-10-13T09:48:59;17.70;;;8.43;;
80675;SDS011;70041;46.088;18.268;2023-10-13T09:51:40;19.30;;;8.60;;
80675;SDS011;70041;46.088;18.268;2023-10-13T09:57:02;19.98;;;8.18;;
80675;SDS011;70041;46.088;18.268;2023-10-13T09:59:55;14.13;;;7.85;;
80675;SDS011;70041;46.088;18.268;2023-10-13T10:02:31;21.40;;;8.30;;
80675;SDS011;70041;46.088;18.268;2023-10-13T10:04:59;17.80;;;8.15;;
80675;SDS011;70041;46.088;18.268;2023-10-13T10:07:56;16.55;;;8.38;;
80675;SDS011;70041;46.088;18.268;2023-10-13T10:10:26;17.67;;;8.48;;
80675;SDS011;70041;46.088;18.268;2023-10-13T10:13:05;17.67;;;8.00;;
80675;SDS011;70041;46.088;18.268;2023-10-13T10:15:43;16.37;;;8.47;;
80675;SDS011;70041;46.088;18.268;2023-10-13T10:18:19;22.42;;;9.15;;
80675;SDS011;70041;46.088;18.268;2023-10-13T10:20:51;17.33;;;8.50;;
80675;SDS011;70041;46.088;18.268;2023-10-13T10:26:18;15.95;;;8.52;;
80675;SDS011;70041;46.088;18.268;2023-10-13T10:28:46;14.47;;;8.37;;
80675;SDS011;70041;46.088;18.268;2023-10-13T10:31:13;16.33;;;7.95;;
80675;SDS011;70041;46.088;18.268;2023-10-13T10:33:41;18.27;;;8.23;;
80675;SDS011;70041;46.088;18.268;2023-10-13T10:36:08;15.35;;;7.70;;
80675;SDS011;70041;46.088;18.268;2023-10-13T10:39:00;16.75;;;8.27;;
80675;SDS011;70041;46.088;18.268;2023-10-13T10:41:26;19.13;;;7.57;;
80675;SDS011;70041;46.088;18.268;2023-10-13T10:44:10;23.33;;;7.88;;
80675;SDS011;70041;46.088;18.268;2023-10-13T10:46:48;17.60;;;7.80;;
80675;SDS011;70041;46.088;18.268;2023-10-13T10:49:23;14.82;;;7.55;;
80675;SDS011;70041;46.088;18.268;2023-10-13T10:51:56;13.50;;;7.45;;
80675;SDS011;70041;46.088;18.268;2023-10-13T10:54:26;17.00;;;8.03;;
80675;SDS011;70041;46.088;18.268;2023-10-13T10:56:56;17.63;;;7.97;;
80675;SDS011;70041;46.088;18.268;2023-10-13T10:59:25;17.88;;;8.40;;
80675;SDS011;70041;46.088;18.268;2023-10-13T11:01:54;20.25;;;7.70;;
80675;SDS011;70041;46.088;18.268;2023-10-13T11:04:19;19.80;;;7.87;;
80675;SDS011;70041;46.088;18.268;2023-10-13T11:06:49;18.85;;;8.75;;
80675;SDS011;70041;46.088;18.268;2023-10-13T11:09:28;15.27;;;7.85;;
80675;SDS011;70041;46.088;18.268;2023-10-13T11:14:41;19.63;;;7.85;;
80675;SDS011;70041;46.088;18.268;2023-10-13T11:17:22;15.73;;;8.30;;
80675;SDS011;70041;46.088;18.268;2023-10-13T11:20:07;17.48;;;7.25;;
80675;SDS011;70041;46.088;18.268;2023-10-13T11:22:40;18.10;;;7.90;;
80675;SDS011;70041;46.088;18.268;2023-10-13T11:25:19;15.50;;;8.03;;
80675;SDS011;70041;46.088;18.268;2023-10-13T11:28:13;16.38;;;8.05;;
80675;SDS011;70041;46.088;18.268;2023-10-13T11:30:45;18.67;;;7.97;;
80675;SDS011;70041;46.088;18.268;2023-10-13T11:33:15;15.20;;;6.55;;
80675;SDS011;70041;46.088;18.268;2023-10-13T11:35:48;12.95;;;6.70;;
80675;SDS011;70041;46.088;18.268;2023-10-13T11:38:27;13.67;;;6.87;;
80675;SDS011;70041;46.088;18.268;2023-10-13T11:41:00;17.73;;;7.80;;
80675;SDS011;70041;46.088;18.268;2023-10-13T11:43:44;14.75;;;7.40;;
80675;SDS011;70041;46.088;18.268;2023-10-13T11:51:40;15.93;;;6.50;;
80675;SDS011;70041;46.088;18.268;2023-10-13T11:56:42;13.15;;;6.10;;
80675;SDS011;70041;46.088;18.268;2023-10-13T11:59:08;17.77;;;7.30;;
80675;SDS011;70041;46.088;18.268;2023-10-13T12:01:47;14.67;;;6.23;;
80675;SDS011;70041;46.088;18.268;2023-10-13T12:04:32;15.68;;;6.38;;
80675;SDS011;70041;46.088;18.268;2023-10-13T12:07:17;14.02;;;6.10;;
80675;SDS011;70041;46.088;18.268;2023-10-13T12:09:49;14.70;;;5.88;;
80675;SDS011;70041;46.088;18.268;2023-10-13T12:12:21;13.77;;;5.72;;
80675;SDS011;70041;46.088;18.268;2023-10-13T12:14:47;16.63;;;6.27;;
80675;SDS011;70041;46.088;18.268;2023-10-13T12:17:23;15.90;;;6.97;;
80675;SDS011;70041;46.088;18.268;2023-10-13T12:20:05;13.05;;;6.03;;
80675;SDS011;70041;46.088;18.268;2023-10-13T12:22:35;14.52;;;6.20;;
80675;SDS011;70041;46.088;18.268;2023-10-13T12:25:07;15.95;;;6.72;;
80675;SDS011;70041;46.088;18.268;2023-10-13T12:27:59;13.27;;;6.50;;
80675;SDS011;70041;46.088;18.268;2023-10-13T12:30:43;15.25;;;6.18;;
80675;SDS011;70041;46.088;18.268;2023-10-13T12:33:16;16.45;;;5.88;;
80675;SDS011;70041;46.088;18.268;2023-10-13T12:35:56;12.93;;;6.10;;
80675;SDS011;70041;46.088;18.268;2023-10-13T12:38:39;13.65;;;5.82;;
80675;SDS011;70041;46.088;18.268;2023-10-13T12:41:10;16.67;;;6.00;;
80675;SDS011;70041;46.088;18.268;2023-10-13T12:43:54;10.48;;;5.43;;
80675;SDS011;70041;46.088;18.268;2023-10-13T12:46:38;12.45;;;4.82;;
80675;SDS011;70041;46.088;18.268;2023-10-13T12:49:22;12.23;;;5.30;;
80675;SDS011;70041;46.088;18.268;2023-10-13T12:52:06;14.88;;;5.57;;
80675;SDS011;70041;46.088;18.268;2023-10-13T12:54:41;12.80;;;5.60;;
80675;SDS011;70041;46.088;18.268;2023-10-13T12:57:27;16.70;;;6.07;;
80675;SDS011;70041;46.088;18.268;2023-10-13T12:59:53;15.85;;;6.82;;
80675;SDS011;70041;46.088;18.268;2023-10-13T13:02:20;17.17;;;6.60;;
80675;SDS011;70041;46.088;18.268;2023-10-13T13:04:45;14.23;;;6.33;;
80675;SDS011;70041;46.088;18.268;2023-10-13T13:07:13;13.88;;;5.70;;
80675;SDS011;70041;46.088;18.268;2023-10-13T13:09:41;11.97;;;5.07;;
80675;SDS011;70041;46.088;18.268;2023-10-13T13:12:07;11.57;;;5.63;;
80675;SDS011;70041;46.088;18.268;2023-10-13T13:14:32;11.73;;;6.10;;
80675;SDS011;70041;46.088;18.268;2023-10-13T13:17:00;12.37;;;5.73;;
80675;SDS011;70041;46.088;18.268;2023-10-13T13:19:34;16.98;;;5.90;;
80675;SDS011;70041;46.088;18.268;2023-10-13T13:22:03;12.07;;;5.40;;
80675;SDS011;70041;46.088;18.268;2023-10-13T13:24:42;13.65;;;6.07;;
80675;SDS011;70041;46.088;18.268;2023-10-13T13:27:14;14.40;;;5.65;;
80675;SDS011;70041;46.088;18.268;2023-10-13T13:29:47;13.67;;;5.13;;
80675;SDS011;70041;46.088;18.268;2023-10-13T13:32:12;14.73;;;5.93;;
80675;SDS011;70041;46.088;18.268;2023-10-13T13:34:52;17.50;;;5.90;;
80675;SDS011;70041;46.088;18.268;2023-10-13T13:37:30;14.27;;;5.47;;
80675;SDS011;70041;46.088;18.268;2023-10-13T13:39:56;15.45;;;5.43;;
80675;SDS011;70041;46.088;18.268;2023-10-13T13:42:38;15.65;;;5.80;;
80675;SDS011;70041;46.088;18.268;2023-10-13T13:45:05;12.35;;;6.15;;
80675;SDS011;70041;46.088;18.268;2023-10-13T13:47:36;12.68;;;5.32;;
80675;SDS011;70041;46.088;18.268;2023-10-13T13:50:02;19.53;;;5.90;;
80675;SDS011;70041;46.088;18.268;2023-10-13T13:52:31;12.55;;;5.38;;
80675;SDS011;70041;46.088;18.268;2023-10-13T13:55:10;13.37;;;5.73;;
80675;SDS011;70041;46.088;18.268;2023-10-13T13:57:36;13.68;;;5.82;;
80675;SDS011;70041;46.088;18.268;2023-10-13T14:00:01;14.67;;;6.10;;
80675;SDS011;70041;46.088;18.268;2023-10-13T14:02:27;11.27;;;5.83;;
80675;SDS011;70041;46.088;18.268;2023-10-13T14:04:53;12.17;;;5.70;;
80675;SDS011;70041;46.088;18.268;2023-10-13T14:07:19;11.43;;;5.50;;
80675;SDS011;70041;46.088;18.268;2023-10-13T14:09:45;12.67;;;5.60;;
80675;SDS011;70041;46.088;18.268;2023-10-13T14:12:16;13.63;;;5.90;;
80675;SDS011;70041;46.088;18.268;2023-10-13T14:14:55;14.55;;;5.85;;
80675;SDS011;70041;46.088;18.268;2023-10-13T14:17:21;10.63;;;5.10;;
80675;SDS011;70041;46.088;18.268;2023-10-13T14:20:00;12.63;;;5.70;;
80675;SDS011;70041;46.088;18.268;2023-10-13T14:22:34;13.88;;;5.53;;
80675;SDS011;70041;46.088;18.268;2023-10-13T14:25:02;14.27;;;5.80;;
80675;SDS011;70041;46.088;18.268;2023-10-13T14:27:33;13.93;;;6.00;;
80675;SDS011;70041;46.088;18.268;2023-10-13T14:30:00;11.73;;;5.05;;
80675;SDS011;70041;46.088;18.268;2023-10-13T14:32:27;12.70;;;5.57;;
80675;SDS011;70041;46.088;18.268;2023-10-13T14:34:53;12.80;;;4.93;;
80675;SDS011;70041;46.088;18.268;2023-10-13T14:37:19;15.60;;;5.75;;
80675;SDS011;70041;46.088;18.268;2023-10-13T14:40:06;14.70;;;5.60;;
80675;SDS011;70041;46.088;18.268;2023-10-13T14:42:37;14.68;;;6.03;;
80675;SDS011;70041;46.088;18.268;2023-10-13T14:45:05;13.93;;;5.97;;
80675;SDS011;70041;46.088;18.268;2023-10-13T14:47:37;14.95;;;6.20;;
80675;SDS011;70041;46.088;18.268;2023-10-13T14:50:04;15.68;;;5.45;;
80675;SDS011;70041;46.088;18.268;2023-10-13T14:52:30;16.23;;;6.43;;
80675;SDS011;70041;46.088;18.268;2023-10-13T14:54:57;13.20;;;5.32;;
80675;SDS011;70041;46.088;18.268;2023-10-13T14:57:25;17.47;;;6.10;;
80675;SDS011;70041;46.088;18.268;2023-10-13T14:59:54;12.93;;;5.65;;
80675;SDS011;70041;46.088;18.268;2023-10-13T15:02:20;12.53;;;5.77;;
80675;SDS011;70041;46.088;18.268;2023-10-13T15:04:46;14.95;;;5.78;;
80675;SDS011;70041;46.088;18.268;2023-10-13T15:07:16;15.02;;;6.10;;
80675;SDS011;70041;46.088;18.268;2023-10-13T15:09:43;16.70;;;6.00;;
80675;SDS011;70041;46.088;18.268;2023-10-13T15:12:11;18.93;;;5.97;;
80675;SDS011;70041;46.088;18.268;2023-10-13T15:14:40;15.88;;;5.70;;
80675;SDS011;70041;46.088;18.268;2023-10-13T15:17:09;18.23;;;6.22;;
80675;SDS011;70041;46.088;18.268;2023-10-13T15:19:35;19.35;;;5.70;;
80675;SDS011;70041;46.088;18.268;2023-10-13T15:22:03;16.00;;;6.35;;
80675;SDS011;70041;46.088;18.268;2023-10-13T15:24:31;12.53;;;5.50;;
80675;SDS011;70041;46.088;18.268;2023-10-13T15:27:01;16.27;;;5.70;;